Map

Track Data

SID SEASON NUMBER BASIN SUBBASIN NAME ISO_TIME NATURE LAT LON WMO_WIND WMO_PRES WMO_AGENCY TRACK_TYPE DIST2LAND LANDFALL IFLAG USA_AGENCY USA_ATCF_ID USA_LAT USA_LON USA_RECORD USA_STATUS USA_WIND USA_PRES USA_SSHS USA_R34_NE USA_R34_SE USA_R34_SW USA_R34_NW USA_R50_NE USA_R50_SE USA_R50_SW USA_R50_NW USA_R64_NE USA_R64_SE USA_R64_SW USA_R64_NW USA_POCI USA_ROCI USA_RMW USA_EYE TOKYO_LAT TOKYO_LON TOKYO_GRADE TOKYO_WIND TOKYO_PRES TOKYO_R50_DIR TOKYO_R50_LONG TOKYO_R50_SHORT TOKYO_R30_DIR TOKYO_R30_LONG TOKYO_R30_SHORT TOKYO_LAND CMA_LAT CMA_LON CMA_CAT CMA_WIND CMA_PRES HKO_LAT HKO_LON HKO_CAT HKO_WIND HKO_PRES NEWDELHI_LAT NEWDELHI_LON NEWDELHI_GRADE NEWDELHI_WIND NEWDELHI_PRES NEWDELHI_CI NEWDELHI_DP NEWDELHI_POCI REUNION_LAT REUNION_LON REUNION_TYPE REUNION_WIND REUNION_PRES REUNION_TNUM REUNION_CI REUNION_RMW REUNION_R34_NE REUNION_R34_SE REUNION_R34_SW REUNION_R34_NW REUNION_R50_NE REUNION_R50_SE REUNION_R50_SW REUNION_R50_NW REUNION_R64_NE REUNION_R64_SE REUNION_R64_SW REUNION_R64_NW BOM_LAT BOM_LON BOM_TYPE BOM_WIND BOM_PRES BOM_TNUM BOM_CI BOM_RMW BOM_R34_NE BOM_R34_SE BOM_R34_SW BOM_R34_NW BOM_R50_NE BOM_R50_SE BOM_R50_SW BOM_R50_NW BOM_R64_NE BOM_R64_SE BOM_R64_SW BOM_R64_NW BOM_ROCI BOM_POCI BOM_EYE BOM_POS_METHOD BOM_PRES_METHOD NADI_LAT NADI_LON NADI_CAT NADI_WIND NADI_PRES WELLINGTON_LAT WELLINGTON_LON WELLINGTON_WIND WELLINGTON_PRES DS824_LAT DS824_LON DS824_STAGE DS824_WIND DS824_PRES TD9636_LAT TD9636_LON TD9636_STAGE TD9636_WIND TD9636_PRES TD9635_LAT TD9635_LON TD9635_WIND TD9635_PRES TD9635_ROCI NEUMANN_LAT NEUMANN_LON NEUMANN_CLASS NEUMANN_WIND NEUMANN_PRES MLC_LAT MLC_LON MLC_CLASS MLC_WIND MLC_PRES USA_GUST BOM_GUST BOM_GUST_PER REUNION_GUST REUNION_GUST_PER USA_SEAHGT USA_SEARAD_NE USA_SEARAD_SE USA_SEARAD_SW USA_SEARAD_NW STORM_SPEED STORM_DIR
1881042S12085 1881 6 SI MM NOT_NAMED 1881-02-11 06:00:00 NR -11.8000 84.6000 main 1942 1942 _____O________ -1 -11.8000 84.6000 99 9.90000 9 244
1881042S12085 1881 6 SI MM NOT_NAMED 1881-02-11 09:00:00 NR -11.9894 84.1950 main 1990 1990 _____P________ -1 -11.9894 84.1950 99 9 245
1881042S12085 1881 6 SI MM NOT_NAMED 1881-02-11 12:00:00 NR -12.1771 83.7911 main 2039 2039 _____P________ -1 -12.1771 83.7911 99 9 245
1881042S12085 1881 6 SI MM NOT_NAMED 1881-02-11 15:00:00 NR -12.3618 83.3904 main 2073 2070 _____P________ -1 -12.3618 83.3904 99 9 245
1881042S12085 1881 6 SI MM NOT_NAMED 1881-02-11 18:00:00 NR -12.5424 82.9947 main 2078 2078 _____P________ -1 -12.5424 82.9947 99 8 245
1881042S12085 1881 6 SI MM NOT_NAMED 1881-02-11 21:00:00 NR -12.7176 82.6059 main 2095 2094 _____P________ -1 -12.7176 82.6059 99 8 245
1881042S12085 1881 6 SI MM NOT_NAMED 1881-02-12 00:00:00 NR -12.8864 82.2259 main 2113 2112 _____P________ -1 -12.8864 82.2259 99 8 246
1881042S12085 1881 6 SI MM NOT_NAMED 1881-02-12 03:00:00 NR -13.0476 81.8567 main 2122 2122 _____P________ -1 -13.0476 81.8567 99 8 246
1881042S12085 1881 6 SI MM NOT_NAMED 1881-02-12 06:00:00 NR -13.2000 81.5000 main 2142 2141 _____O________ -1 -13.2000 81.5000 99 9.90000 7 247
1881042S12085 1881 6 SI MM NOT_NAMED 1881-02-12 09:00:00 NR -13.3430 81.1572 main 2152 2152 _____P________ -1 -13.3430 81.1572 99 7 247
1881042S12085 1881 6 SI MM NOT_NAMED 1881-02-12 12:00:00 NR -13.4777 80.8270 main 2173 2173 _____P________ -1 -13.4777 80.8270 99 7 247
1881042S12085 1881 6 SI MM NOT_NAMED 1881-02-12 15:00:00 NR -13.6058 80.5073 main 2184 2184 _____P________ -1 -13.6058 80.5073 99 7 248
1881042S12085 1881 6 SI MM NOT_NAMED 1881-02-12 18:00:00 NR -13.7287 80.1964 main 2196 2196 _____P________ -1 -13.7287 80.1964 99 6 248
1881042S12085 1881 6 SI MM NOT_NAMED 1881-02-12 21:00:00 NR -13.8481 79.8922 main 2208 2208 _____P________ -1 -13.8481 79.8922 99 6 248
1881042S12085 1881 6 SI MM NOT_NAMED 1881-02-13 00:00:00 NR -13.9654 79.5927 main 2232 2232 _____P________ -1 -13.9654 79.5927 99 6 248
1881042S12085 1881 6 SI MM NOT_NAMED 1881-02-13 03:00:00 NR -14.0822 79.2959 main 2245 2245 _____P________ -1 -14.0822 79.2959 99 6 248
1881042S12085 1881 6 SI MM NOT_NAMED 1881-02-13 06:00:00 NR -14.2000 79.0000 reunion main 2258 2258 _____O________ -1 -14.2000 79.0000 99 9.90000 6 247
1881042S12085 1881 6 SI MM NOT_NAMED 1881-02-13 09:00:00 NR -14.3246 78.7008 main 2272 2272 _____P________ -1 -14.3246 78.7008 99 6 247
1881042S12085 1881 6 SI MM NOT_NAMED 1881-02-13 12:00:00 NR -14.4492 78.4045 main 2282 2244 _____P________ -1 -14.4492 78.4045 99 6 246
1881042S12085 1881 6 SI MM NOT_NAMED 1881-02-13 15:00:00 NR -14.5740 78.1094 main 2244 2209 _____P________ -1 -14.5740 78.1094 99 6 246
1881042S12085 1881 6 SI MM NOT_NAMED 1881-02-13 18:00:00 NR -14.6989 77.8142 main 2209 2175 _____P________ -1 -14.6989 77.8142 99 6 246
1881042S12085 1881 6 SI MM NOT_NAMED 1881-02-13 21:00:00 NR -14.8240 77.5172 main 2175 2141 _____P________ -1 -14.8240 77.5172 99 6 247
1881042S12085 1881 6 SI MM NOT_NAMED 1881-02-14 00:00:00 NR -14.9492 77.2169 main 2141 2103 _____P________ -1 -14.9492 77.2169 99 6 247
1881042S12085 1881 6 SI MM NOT_NAMED 1881-02-14 03:00:00 NR -15.0745 76.9117 main 2103 2069 _____P________ -1 -15.0745 76.9117 99 6 247
1881042S12085 1881 6 SI MM NOT_NAMED 1881-02-14 06:00:00 NR -15.2000 76.6000 reunion main 2069 2035 _____O________ -1 -15.2000 76.6000 99 9.90000 7 248
1881042S12085 1881 6 SI MM NOT_NAMED 1881-02-14 09:00:00 NR -15.3230 76.2705 main 2035 2001 _____P________ -1 -15.3230 76.2705 99 7 249
1881042S12085 1881 6 SI MM NOT_NAMED 1881-02-14 12:00:00 NR -15.4459 75.9341 main 1991 1953 _____P________ -1 -15.4459 75.9341 99 7 249
1881042S12085 1881 6 SI MM NOT_NAMED 1881-02-14 15:00:00 NR -15.5689 75.5929 main 1953 1919 _____P________ -1 -15.5689 75.5929 99 7 250
1881042S12085 1881 6 SI MM NOT_NAMED 1881-02-14 18:00:00 NR -15.6925 75.2495 main 1909 1875 _____P________ -1 -15.6925 75.2495 99 7 249
1881042S12085 1881 6 SI MM NOT_NAMED 1881-02-14 21:00:00 NR -15.8170 74.9062 main 1875 1841 _____P________ -1 -15.8170 74.9062 99 7 249
1881042S12085 1881 6 SI MM NOT_NAMED 1881-02-15 00:00:00 NR -15.9428 74.5652 main 1841 1794 _____P________ -1 -15.9428 74.5652 99 7 249
1881042S12085 1881 6 SI MM NOT_NAMED 1881-02-15 03:00:00 NR -16.0703 74.2290 main 1794 1760 _____P________ -1 -16.0703 74.2290 99 7 248
1881042S12085 1881 6 SI MM NOT_NAMED 1881-02-15 06:00:00 NR -16.2000 73.9000 reunion main 1760 1726 _____O________ -1 -16.2000 73.9000 99 9.90000 6 247
1881042S12085 1881 6 SI MM NOT_NAMED 1881-02-15 09:00:00 NR -16.3182 73.6155 main 1726 1702 _____P________ -1 -16.3182 73.6155 99 6 246
1881042S12085 1881 6 SI MM NOT_NAMED 1881-02-15 12:00:00 NR -16.4370 73.3411 main 1692 1665 _____P________ -1 -16.4370 73.3411 99 6 245
1881042S12085 1881 6 SI MM NOT_NAMED 1881-02-15 15:00:00 NR -16.5590 73.0696 main 1665 1631 _____P________ -1 -16.5590 73.0696 99 6 245
1881042S12085 1881 6 SI MM NOT_NAMED 1881-02-15 18:00:00 NR -16.6864 72.7937 main 1631 1597 _____P________ -1 -16.6864 72.7937 99 6 244
1881042S12085 1881 6 SI MM NOT_NAMED 1881-02-15 21:00:00 NR -16.8219 72.5062 main 1597 1560 _____P________ -1 -16.8219 72.5062 99 6 244
1881042S12085 1881 6 SI MM NOT_NAMED 1881-02-16 00:00:00 NR -16.9677 72.1997 main 1560 1527 _____P________ -1 -16.9677 72.1997 99 7 244
1881042S12085 1881 6 SI MM NOT_NAMED 1881-02-16 03:00:00 NR -17.1263 71.8668 main 1527 1480 _____P________ -1 -17.1263 71.8668 99 7 244
1881042S12085 1881 6 SI MM NOT_NAMED 1881-02-16 06:00:00 NR -17.3000 71.5000 reunion main 1480 1433 _____O________ -1 -17.3000 71.5000 99 9.90000 9 244
1881042S12085 1881 6 SI MM NOT_NAMED 1881-02-16 09:00:00 NR -17.5012 71.0583 main 1433 1376 _____P________ -1 -17.5012 71.0583 99 10 245
1881042S12085 1881 6 SI MM NOT_NAMED 1881-02-16 12:00:00 NR -17.7181 70.5805 main 1376 1319 _____P________ -1 -17.7181 70.5805 99 10 245
1881042S12085 1881 6 SI MM NOT_NAMED 1881-02-16 15:00:00 NR -17.9460 70.0763 main 1319 1260 _____P________ -1 -17.9460 70.0763 99 11 245
1881042S12085 1881 6 SI MM NOT_NAMED 1881-02-16 18:00:00 NR -18.1806 69.5553 main 1260 1204 _____P________ -1 -18.1806 69.5553 99 11 245
1881042S12085 1881 6 SI MM NOT_NAMED 1881-02-16 21:00:00 NR -18.4175 69.0272 main 1193 1137 _____P________ -1 -18.4175 69.0272 99 11 245
1881042S12085 1881 6 SI MM NOT_NAMED 1881-02-17 00:00:00 NR -18.6525 68.5020 main 1135 1079 _____P________ -1 -18.6525 68.5020 99 11 245
1881042S12085 1881 6 SI MM NOT_NAMED 1881-02-17 03:00:00 NR -18.8813 67.9896 main 1079 1024 _____P________ -1 -18.8813 67.9896 99 11 245
1881042S12085 1881 6 SI MM NOT_NAMED 1881-02-17 06:00:00 NR -19.1000 67.5000 reunion main 1024 979 _____O________ -1 -19.1000 67.5000 99 9.90000 9 245
1881042S12085 1881 6 SI MM NOT_NAMED 1881-02-17 09:00:00 NR -19.2801 67.0838 main 979 936 _____P________ -1 -19.2801 67.0838 99 8 245
1881042S12085 1881 6 SI MM NOT_NAMED 1881-02-17 12:00:00 NR -19.4508 66.6889 main 934 891 _____P________ -1 -19.4508 66.6889 99 8 245
1881042S12085 1881 6 SI MM NOT_NAMED 1881-02-17 15:00:00 NR -19.6162 66.3088 main 891 858 _____P________ -1 -19.6162 66.3088 99 8 245
1881042S12085 1881 6 SI MM NOT_NAMED 1881-02-17 18:00:00 NR -19.7801 65.9369 main 847 815 _____P________ -1 -19.7801 65.9369 99 8 245
1881042S12085 1881 6 SI MM NOT_NAMED 1881-02-17 21:00:00 NR -19.9466 65.5668 main 815 772 _____P________ -1 -19.9466 65.5668 99 8 244
1881042S12085 1881 6 SI MM NOT_NAMED 1881-02-18 00:00:00 NR -20.1195 65.1917 main 772 729 _____P________ -1 -20.1195 65.1917 99 8 244
1881042S12085 1881 6 SI MM NOT_NAMED 1881-02-18 03:00:00 NR -20.3027 64.8050 main 729 688 _____P________ -1 -20.3027 64.8050 99 8 243
1881042S12085 1881 6 SI MM NOT_NAMED 1881-02-18 06:00:00 NR -20.5000 64.4000 reunion main 688 647 _____O________ -1 -20.5000 64.4000 99 9.90000 9 242
1881042S12085 1881 6 SI MM NOT_NAMED 1881-02-18 09:00:00 NR -20.7302 63.9371 main 636 596 _____P________ -1 -20.7302 63.9371 99 10 242
1881042S12085 1881 6 SI MM NOT_NAMED 1881-02-18 12:00:00 NR -20.9740 63.4557 main 598 549 _____P________ -1 -20.9740 63.4557 99 10 241
1881042S12085 1881 6 SI MM NOT_NAMED 1881-02-18 15:00:00 NR -21.2275 62.9613 main 549 503 _____P________ -1 -21.2275 62.9613 99 11 241
1881042S12085 1881 6 SI MM NOT_NAMED 1881-02-18 18:00:00 NR -21.4865 62.4597 main 506 463 _____P________ -1 -21.4865 62.4597 99 11 241
1881042S12085 1881 6 SI MM NOT_NAMED 1881-02-18 21:00:00 NR -21.7470 61.9568 main 463 427 _____P________ -1 -21.7470 61.9568 99 11 241
1881042S12085 1881 6 SI MM NOT_NAMED 1881-02-19 00:00:00 NR -22.0054 61.4585 main 427 390 _____P________ -1 -22.0054 61.4585 99 10 241
1881042S12085 1881 6 SI MM NOT_NAMED 1881-02-19 03:00:00 NR -22.2576 60.9709 main 396 365 _____P________ -1 -22.2576 60.9709 99 10 241
1881042S12085 1881 6 SI MM NOT_NAMED 1881-02-19 06:00:00 NR -22.5000 60.5000 reunion main 365 349 _____O________ -1 -22.5000 60.5000 99 9.90000 10 242
1881042S12085 1881 6 SI MM NOT_NAMED 1881-02-19 09:00:00 NR -22.7134 60.0619 main 349 336 _____P________ -1 -22.7134 60.0619 99 9 242
1881042S12085 1881 6 SI MM NOT_NAMED 1881-02-19 12:00:00 NR -22.9183 59.6386 main 332 330 _____P________ -1 -22.9183 59.6386 99 9 242
1881042S12085 1881 6 SI MM NOT_NAMED 1881-02-19 15:00:00 NR -23.1170 59.2281 main 329 329 _____P________ -1 -23.1170 59.2281 99 8 242
1881042S12085 1881 6 SI MM NOT_NAMED 1881-02-19 18:00:00 NR -23.3120 58.8286 main 332 332 _____P________ -1 -23.3120 58.8286 99 8 242
1881042S12085 1881 6 SI MM NOT_NAMED 1881-02-19 21:00:00 NR -23.5055 58.4380 main 343 343 _____P________ -1 -23.5055 58.4380 99 8 241
1881042S12085 1881 6 SI MM NOT_NAMED 1881-02-20 00:00:00 NR -23.6999 58.0544 main 357 346 _____P________ -1 -23.6999 58.0544 99 8 241
1881042S12085 1881 6 SI MM NOT_NAMED 1881-02-20 03:00:00 NR -23.8973 57.6757 main 349 343 _____P________ -1 -23.8973 57.6757 99 8 240
1881042S12085 1881 6 SI MM NOT_NAMED 1881-02-20 06:00:00 NR -24.1000 57.3000 reunion main 348 343 _____O________ -1 -24.1000 57.3000 99 9.90000 8 239
1881042S12085 1881 6 SI MM NOT_NAMED 1881-02-20 09:00:00 NR -24.3330 56.8859 main 350 350 _____P________ -1 -24.3330 56.8859 99 9 238
1881042S12085 1881 6 SI MM NOT_NAMED 1881-02-20 12:00:00 NR -24.5725 56.4723 main 369 366 _____P________ -1 -24.5725 56.4723 99 9 237
1881042S12085 1881 6 SI MM NOT_NAMED 1881-02-20 15:00:00 NR -24.8141 56.0645 main 383 382 _____P________ -1 -24.8141 56.0645 99 9 237
1881042S12085 1881 6 SI MM NOT_NAMED 1881-02-20 18:00:00 NR -25.0533 55.6677 main 413 413 _____P________ -1 -25.0533 55.6677 99 8 236
1881042S12085 1881 6 SI MM NOT_NAMED 1881-02-20 21:00:00 NR -25.2859 55.2873 main 436 436 _____P________ -1 -25.2859 55.2873 99 8 236
1881042S12085 1881 6 SI MM NOT_NAMED 1881-02-21 00:00:00 NR -25.5073 54.9289 main 463 463 _____P________ -1 -25.5073 54.9289 99 8 235
1881042S12085 1881 6 SI MM NOT_NAMED 1881-02-21 03:00:00 NR -25.7135 54.5979 main 491 491 _____P________ -1 -25.7135 54.5979 99 7 235
1881042S12085 1881 6 SI MM NOT_NAMED 1881-02-21 06:00:00 NR -25.9000 54.3000 reunion main 520 520 _____O________ -1 -25.9000 54.3000 99 9.90000 6 235
1881042S12085 1881 6 SI MM NOT_NAMED 1881-02-21 09:00:00 NR -26.0640 54.0393 main 549 549 _____P________ -1 -26.0640 54.0393 99 5 235
1881042S12085 1881 6 SI MM NOT_NAMED 1881-02-21 12:00:00 NR -26.2072 53.8127 main 566 566 _____P________ -1 -26.2072 53.8127 99 5 235
1881042S12085 1881 6 SI MM NOT_NAMED 1881-02-21 15:00:00 NR -26.3328 53.6155 main 584 584 _____P________ -1 -26.3328 53.6155 99 4 234
1881042S12085 1881 6 SI MM NOT_NAMED 1881-02-21 18:00:00 NR -26.4438 53.4429 main 601 601 _____P________ -1 -26.4438 53.4429 99 4 234
1881042S12085 1881 6 SI MM NOT_NAMED 1881-02-21 21:00:00 NR -26.5431 53.2900 main 615 615 _____P________ -1 -26.5431 53.2900 99 3 234
1881042S12085 1881 6 SI MM NOT_NAMED 1881-02-22 00:00:00 NR -26.6336 53.1518 main 629 619 _____P________ -1 -26.6336 53.1518 99 3 234
1881042S12085 1881 6 SI MM NOT_NAMED 1881-02-22 03:00:00 NR -26.7183 53.0235 main 619 613 _____P________ -1 -26.7183 53.0235 99 3 234
1881042S12085 1881 6 SI MM NOT_NAMED 1881-02-22 06:00:00 NR -26.8000 52.9000 reunion main 613 _____O________ -1 -26.8000 52.9000 99 9.90000 3 233

About IBTrACS Database

This database is a web-friendly format of International Best Track Archive for Climate Stewardship (IBTrACS), a global best track data archive curated by NOAA dating back to 1842.

Updated: 2021-12-01